Washington, GA

8:41 AM EDT on August 04, 2015 (GMT -0400)
Washington-Wilkes County | | Change Station
CLOSE
Current Station
Airport
Location: Washington,
Elevation: 646 ft
Nearby Weather Stations

Elev 646 ft 33.78 °N, 82.82 °W | Updated 6 minutes ago

Fog
Fog
77 °F
Feels Like 77 °F
N
0
Wind Variable Wind from North

Today
High -- | Low -- °F
--% Chance of Precip.
Yesterday
High -- | Low -- °F
Precip. -- in
6:44 AM 8:28 PM
Waning Gibbous, 78% visible
Pressure 30.01 in
Visibility 1.2 miles
Clouds Overcast 200 ft
Dew Point 77 °F
Humidity 100%
Rainfall 0.00 in
Snow Depth Not available.
UV 1 out of 12
Pollen 5.40 out of 12
Air Quality Not available.
Flu Activity Not available.
METAR KIIY 041235Z AUTO 00000KT 1 1/4SM BR OVC002 25/25 A3001 RMK AO2

More Conditions Fewer Conditions

Pressure 30.01 in
Visibility 1.2 miles
Clouds Overcast 200 ft
Dew Point 77 °F
Humidity 100%
Rainfall 0.00 in
Snow Depth Not available.
UV 1 out of 12
Pollen 5.40 out of 12
Air Quality Not available.
Flu Activity Not available.
METAR KIIY 041235Z AUTO 00000KT 1 1/4SM BR OVC002 25/25 A3001 RMK AO2

More Conditions Fewer Conditions

10-Day Weather Forecast

×

Almanac

Astronomy

Aug. 04, 2015 Rise Set
Actual Time
Civil Twilight
Nautical Twilight
Astronomical Twilight
Moon
Length of Visible Light
Length of Day
Tomorrow will be .
, % of the Moon is Illuminated

Today's Extremes

State Highs State Lows

Community

WunderPhotos

Upload Photos

1,843,913 photos uploaded!

WunderBlogs® & News

Nearby

Air Quality

  Air Quality AQ Index Pollutant
Not available.

Snow Depth

Station Depth Elevation

Earthquake Activity

City Distance Mag. Time & Date
Minimum magnitude displayed is 2.5.

Coastal Water Temperatures

Place Temperature

Stations

Nearby Weather Stations

Station Location Temp. Windchill Dew Point Humidity Wind Precip. Elev Updated Type